Fenn, Idaho
Current Conditions -  °F | °C
As of 12:55 AM on Friday 24 Oct 2014 (Local Time) from KGIC Reporting Station
Overcast Overcast  
Wind Chill: 47°   Ceiling: 2100
Heat Index: 47°   Visibility: 7mi
Dew Point: 46°   Wind: 0mph
Humidity: 93%   Direction: NA
Pressure: 30.09"   Gusts: NA
Location:  45.96°N, 116.26°W
Report Text: KGIC 240755Z AUTO 00000KT 7SM SCT002 OVC021 09/08 A3009 RMK AO1 T00850075
Loading
Personal Weather Stations






























Interactive Weather Map
Tropical Storm Tracking
New forecast layout! Learn more

10-Day Weather Forecast

Advertisements
Track Severe Weather on mobile